< < Back
Terminal Aerodrome Forecast


Current Version              Previous Versions:   1  2  3  4  5  6  7  8  9  

Terminal Aerodrome Forecast

926
FTUS42 KFFC 052336
TAFPDK
TAF
KPDK 052336Z 0600/0624 33010G20KT P6SM OVC012
      TEMPO 0600/0602 -RA OVC008
     FM060200 34010KT P6SM OVC012
     FM061400 01005KT P6SM BKN025
     FM061600 03005KT P6SM BKN040
     FM061800 34005KT P6SM SCT040 SCT250=

Latest METAR

990
SAUS70 KWBC 060400 RRD
MTRPDK
METAR KPDK 060353Z 32010KT 10SM CLR M02/M04 A3030 RMK AO2 SLP277
T10171044


USA.gov is the U.S. government's official web portal to all federal, state and local government web resources and services.